RYR6829 LZIB-EPGD
Flight info
| Callsign | RYR6829 |
|---|---|
| Flight time | 0h 59m |
| Altitude | 32000 |
| Route | BERVA P10 MAVOR DCT UPLAV DCT DESEN DCT ARMEX L617 XIDNA DCT ATMIR P733 IRLUN |
| Aircraft | B738/M-SDE3FGILRWY/SB1 |
Departure
| Time | 2026-05-07 18:53 |
|---|---|
| Airport | M. R. Štefánik Airport (LZIB) |
Arrival
| Time | 2026-05-07 19:52 |
|---|---|
| Airport | Gdańsk Lech Wałęsa Airport (EPGD) |
| Time | Latitude | Longitude | Altitude | Speed | Heading |
|---|---|---|---|---|---|
| 2026-05-07 18:27 | 48.16861 | 17.20018 | 441 ft | 0 kts | 314° |
| 2026-05-07 18:42 | 48.16855 | 17.20027 | 441 ft | 2 kts | 314° |
| 2026-05-07 18:43 | 48.16844 | 17.20044 | 441 ft | 2 kts | 314° |
| 2026-05-07 18:43 | 48.16833 | 17.20060 | 441 ft | 2 kts | 332° |
| 2026-05-07 18:43 | 48.16819 | 17.20064 | 441 ft | 2 kts | 10° |
| 2026-05-07 18:43 | 48.16807 | 17.20057 | 441 ft | 0 kts | 40° |
| 2026-05-07 18:44 | 48.16802 | 17.20050 | 441 ft | 1 kts | 45° |
| 2026-05-07 18:44 | 48.16801 | 17.20049 | 441 ft | 0 kts | 44° |
| 2026-05-07 18:48 | 48.16816 | 17.20071 | 441 ft | 6 kts | 44° |
| 2026-05-07 18:48 | 48.16838 | 17.20103 | 441 ft | 0 kts | 44° |
| 2026-05-07 18:48 | 48.16857 | 17.20131 | 441 ft | 10 kts | 44° |
| 2026-05-07 18:48 | 48.16909 | 17.20205 | 441 ft | 10 kts | 44° |
| 2026-05-07 18:49 | 48.16962 | 17.20279 | 440 ft | 12 kts | 42° |
| 2026-05-07 18:49 | 48.17040 | 17.20388 | 440 ft | 18 kts | 44° |
| 2026-05-07 18:49 | 48.17129 | 17.20517 | 440 ft | 16 kts | 44° |
| 2026-05-07 18:49 | 48.17229 | 17.20553 | 440 ft | 15 kts | 325° |
| 2026-05-07 18:50 | 48.17303 | 17.20441 | 440 ft | 15 kts | 312° |
| 2026-05-07 18:50 | 48.17378 | 17.20333 | 440 ft | 14 kts | 326° |
| 2026-05-07 18:50 | 48.17411 | 17.20309 | 440 ft | 1 kts | 343° |
| 2026-05-07 18:50 | 48.17439 | 17.20303 | 439 ft | 0 kts | 358° |
| 2026-05-07 18:51 | 48.17448 | 17.20304 | 439 ft | 7 kts | 5° |
| 2026-05-07 18:51 | 48.17528 | 17.20375 | 439 ft | 15 kts | 60° |
| 2026-05-07 18:52 | 48.17495 | 17.20515 | 439 ft | 15 kts | 135° |
| 2026-05-07 18:52 | 48.17365 | 17.20714 | 439 ft | 53 kts | 134° |
| 2026-05-07 18:52 | 48.16945 | 17.21369 | 439 ft | 120 kts | 133° |
| 2026-05-07 18:52 | 48.16232 | 17.22477 | 459 ft | 171 kts | 133° |
| 2026-05-07 18:53 | 48.15417 | 17.23887 | 850 ft | 188 kts | 132° |
| 2026-05-07 18:53 | 48.14549 | 17.25333 | 1623 ft | 187 kts | 138° |
| 2026-05-07 18:53 | 48.13594 | 17.26659 | 2231 ft | 193 kts | 139° |
| 2026-05-07 18:53 | 48.12607 | 17.28086 | 2653 ft | 207 kts | 135° |
| 2026-05-07 18:54 | 48.11651 | 17.29753 | 3123 ft | 218 kts | 121° |
| 2026-05-07 18:54 | 48.11165 | 17.31904 | 3663 ft | 225 kts | 91° |
| 2026-05-07 18:54 | 48.11419 | 17.34185 | 4345 ft | 224 kts | 66° |
| 2026-05-07 18:54 | 48.12214 | 17.36150 | 4990 ft | 225 kts | 46° |
| 2026-05-07 18:55 | 48.13399 | 17.37598 | 5667 ft | 223 kts | 23° |
| 2026-05-07 18:55 | 48.14899 | 17.38062 | 6325 ft | 224 kts | 356° |
| 2026-05-07 18:55 | 48.16450 | 17.37647 | 6816 ft | 234 kts | 340° |
| 2026-05-07 18:55 | 48.17956 | 17.36520 | 7266 ft | 249 kts | 328° |
| 2026-05-07 18:56 | 48.19455 | 17.35090 | 7684 ft | 264 kts | 327° |
| 2026-05-07 18:56 | 48.21028 | 17.33593 | 8216 ft | 273 kts | 329° |
| 2026-05-07 18:56 | 48.22745 | 17.32345 | 8896 ft | 278 kts | 343° |
| 2026-05-07 18:56 | 48.24666 | 17.32045 | 9590 ft | 283 kts | 5° |
| 2026-05-07 18:57 | 48.26569 | 17.32795 | 10286 ft | 289 kts | 22° |
| 2026-05-07 18:57 | 48.28371 | 17.34317 | 10696 ft | 307 kts | 36° |
| 2026-05-07 18:57 | 48.30007 | 17.36482 | 11103 ft | 323 kts | 41° |
| 2026-05-07 18:57 | 48.31797 | 17.38635 | 11494 ft | 339 kts | 33° |
| 2026-05-07 18:58 | 48.33831 | 17.40547 | 11971 ft | 352 kts | 29° |
| 2026-05-07 18:58 | 48.35984 | 17.42375 | 12620 ft | 359 kts | 28° |
| 2026-05-07 18:58 | 48.38144 | 17.44188 | 13369 ft | 364 kts | 28° |
| 2026-05-07 18:58 | 48.40368 | 17.46090 | 14136 ft | 369 kts | 29° |
| 2026-05-07 18:59 | 48.42623 | 17.47947 | 14823 ft | 375 kts | 25° |
| 2026-05-07 18:59 | 48.45042 | 17.49504 | 15582 ft | 379 kts | 18° |
| 2026-05-07 18:59 | 48.47556 | 17.50608 | 16300 ft | 383 kts | 12° |
| 2026-05-07 18:59 | 48.50167 | 17.51417 | 16958 ft | 389 kts | 8° |
| 2026-05-07 19:00 | 48.52839 | 17.52078 | 17657 ft | 393 kts | 6° |
| 2026-05-07 19:00 | 48.55561 | 17.52696 | 18347 ft | 398 kts | 6° |
| 2026-05-07 19:00 | 48.58316 | 17.53319 | 19074 ft | 402 kts | 6° |
| 2026-05-07 19:00 | 48.61093 | 17.53851 | 19642 ft | 408 kts | 2° |
| 2026-05-07 19:01 | 48.63908 | 17.54089 | 20274 ft | 412 kts | 359° |
| 2026-05-07 19:01 | 48.66804 | 17.54145 | 20878 ft | 417 kts | 357° |
| 2026-05-07 19:01 | 48.69702 | 17.54107 | 21508 ft | 420 kts | 356° |
| 2026-05-07 19:01 | 48.72634 | 17.54033 | 22081 ft | 426 kts | 356° |
| 2026-05-07 19:02 | 48.75585 | 17.53950 | 22651 ft | 431 kts | 356° |
| 2026-05-07 19:02 | 48.78586 | 17.53868 | 23189 ft | 436 kts | 356° |
| 2026-05-07 19:02 | 48.81628 | 17.53792 | 23520 ft | 434 kts | 356° |
| 2026-05-07 19:02 | 48.84674 | 17.53721 | 23888 ft | 443 kts | 356° |
| 2026-05-07 19:03 | 48.87780 | 17.53653 | 24414 ft | 447 kts | 356° |
| 2026-05-07 19:03 | 48.90873 | 17.53591 | 24925 ft | 452 kts | 356° |
| 2026-05-07 19:03 | 48.94015 | 17.53531 | 25498 ft | 455 kts | 356° |
| 2026-05-07 19:03 | 48.97228 | 17.53471 | 25990 ft | 460 kts | 356° |
| 2026-05-07 19:04 | 49.00409 | 17.53411 | 26466 ft | 464 kts | 356° |
| 2026-05-07 19:04 | 49.03627 | 17.53353 | 26947 ft | 468 kts | 356° |
| 2026-05-07 19:04 | 49.06903 | 17.53293 | 27413 ft | 472 kts | 356° |
| 2026-05-07 19:04 | 49.10171 | 17.53233 | 27836 ft | 476 kts | 356° |
| 2026-05-07 19:05 | 49.13516 | 17.53172 | 28237 ft | 481 kts | 356° |
| 2026-05-07 19:05 | 49.16883 | 17.53110 | 28690 ft | 484 kts | 356° |
| 2026-05-07 19:05 | 49.20237 | 17.53049 | 29113 ft | 487 kts | 356° |
| 2026-05-07 19:05 | 49.23672 | 17.52987 | 29550 ft | 490 kts | 356° |
| 2026-05-07 19:06 | 49.27082 | 17.52924 | 29917 ft | 494 kts | 356° |
| 2026-05-07 19:06 | 49.34034 | 17.52797 | 30658 ft | 502 kts | 356° |
| 2026-05-07 19:06 | 49.37500 | 17.52745 | 31014 ft | 504 kts | 356° |
| 2026-05-07 19:07 | 49.41038 | 17.52702 | 31372 ft | 506 kts | 357° |
| 2026-05-07 19:07 | 49.44534 | 17.52664 | 31740 ft | 507 kts | 357° |
| 2026-05-07 19:07 | 49.48040 | 17.52628 | 31961 ft | 505 kts | 357° |
| 2026-05-07 19:07 | 49.51517 | 17.52596 | 31972 ft | 489 kts | 357° |
| 2026-05-07 19:08 | 49.54857 | 17.52567 | 31973 ft | 472 kts | 357° |
| 2026-05-07 19:08 | 49.58112 | 17.52538 | 31975 ft | 463 kts | 357° |
| 2026-05-07 19:08 | 49.64614 | 17.52457 | 31978 ft | 478 kts | 357° |
| 2026-05-07 19:09 | 49.71285 | 17.52370 | 31971 ft | 476 kts | 357° |
| 2026-05-07 19:09 | 49.77489 | 17.52294 | 31971 ft | 476 kts | 357° |
| 2026-05-07 19:10 | 49.84114 | 17.52214 | 31971 ft | 476 kts | 357° |
| 2026-05-07 19:10 | 49.90736 | 17.52134 | 31971 ft | 478 kts | 357° |
| 2026-05-07 19:11 | 49.97428 | 17.52052 | 31972 ft | 487 kts | 357° |
| 2026-05-07 19:11 | 50.04313 | 17.51964 | 31969 ft | 505 kts | 357° |
| 2026-05-07 19:12 | 50.11463 | 17.51874 | 31968 ft | 515 kts | 357° |
| 2026-05-07 19:12 | 50.18610 | 17.51789 | 31969 ft | 514 kts | 358° |
| 2026-05-07 19:13 | 50.25707 | 17.51431 | 31972 ft | 512 kts | 353° |
| 2026-05-07 19:13 | 50.32797 | 17.49979 | 31977 ft | 511 kts | 347° |
| 2026-05-07 19:14 | 50.39760 | 17.47916 | 31981 ft | 512 kts | 345° |
| 2026-05-07 19:14 | 50.46703 | 17.45665 | 31984 ft | 511 kts | 345° |
| 2026-05-07 19:15 | 50.53664 | 17.43391 | 31984 ft | 511 kts | 346° |
| 2026-05-07 19:15 | 50.60624 | 17.41145 | 31994 ft | 512 kts | 346° |
| 2026-05-07 19:16 | 50.67615 | 17.38911 | 31991 ft | 512 kts | 346° |
| 2026-05-07 19:16 | 50.74578 | 17.36692 | 31994 ft | 513 kts | 346° |
| 2026-05-07 19:17 | 50.81558 | 17.34466 | 31998 ft | 512 kts | 346° |
| 2026-05-07 19:17 | 50.88543 | 17.32231 | 32009 ft | 514 kts | 346° |
| 2026-05-07 19:18 | 50.95504 | 17.29996 | 32010 ft | 514 kts | 346° |
| 2026-05-07 19:18 | 51.02497 | 17.27744 | 32017 ft | 514 kts | 346° |
| 2026-05-07 19:19 | 51.09482 | 17.25487 | 32013 ft | 515 kts | 346° |
| 2026-05-07 19:19 | 51.16482 | 17.23219 | 32014 ft | 513 kts | 346° |
| 2026-05-07 19:20 | 51.23507 | 17.20933 | 32014 ft | 514 kts | 346° |
| 2026-05-07 19:20 | 51.30530 | 17.18642 | 32019 ft | 514 kts | 346° |
| 2026-05-07 19:21 | 51.37479 | 17.16369 | 32017 ft | 512 kts | 346° |
| 2026-05-07 19:21 | 51.44452 | 17.14075 | 32023 ft | 513 kts | 346° |
| 2026-05-07 19:22 | 51.51360 | 17.11183 | 32018 ft | 512 kts | 340° |
| 2026-05-07 19:22 | 51.58049 | 17.07413 | 32013 ft | 510 kts | 336° |
| 2026-05-07 19:23 | 51.64632 | 17.03363 | 32018 ft | 509 kts | 337° |
| 2026-05-07 19:23 | 51.71526 | 17.00992 | 32024 ft | 516 kts | 359° |
| 2026-05-07 19:24 | 51.75118 | 17.01607 | 32025 ft | 517 kts | 11° |
| 2026-05-07 19:24 | 51.78590 | 17.02820 | 32023 ft | 518 kts | 14° |
| 2026-05-07 19:24 | 51.85544 | 17.05791 | 32029 ft | 517 kts | 16° |
| 2026-05-07 19:25 | 51.92446 | 17.08909 | 32030 ft | 517 kts | 16° |
| 2026-05-07 19:25 | 51.99357 | 17.11984 | 32033 ft | 519 kts | 15° |
| 2026-05-07 19:26 | 52.06308 | 17.15007 | 32034 ft | 518 kts | 15° |
| 2026-05-07 19:26 | 52.13283 | 17.18000 | 32026 ft | 517 kts | 15° |
| 2026-05-07 19:27 | 52.20205 | 17.20956 | 32041 ft | 519 kts | 15° |
| 2026-05-07 19:27 | 52.27187 | 17.23941 | 32036 ft | 519 kts | 15° |
| 2026-05-07 19:28 | 52.34155 | 17.26929 | 32039 ft | 518 kts | 15° |
| 2026-05-07 19:28 | 52.41127 | 17.29932 | 32041 ft | 519 kts | 15° |
| 2026-05-07 19:29 | 52.54898 | 17.35892 | 32044 ft | 519 kts | 15° |
| 2026-05-07 19:30 | 52.61859 | 17.38920 | 32051 ft | 519 kts | 15° |
| 2026-05-07 19:30 | 52.68842 | 17.41967 | 32048 ft | 520 kts | 15° |
| 2026-05-07 19:31 | 52.75772 | 17.45361 | 32047 ft | 520 kts | 21° |
| 2026-05-07 19:31 | 52.82241 | 17.50542 | 32060 ft | 518 kts | 32° |
| 2026-05-07 19:32 | 52.88293 | 17.56877 | 32062 ft | 517 kts | 36° |
| 2026-05-07 19:32 | 52.94198 | 17.63677 | 32059 ft | 516 kts | 37° |
| 2026-05-07 19:33 | 53.00021 | 17.70527 | 31552 ft | 510 kts | 39° |
| 2026-05-07 19:33 | 53.02862 | 17.73864 | 31271 ft | 498 kts | 39° |
| 2026-05-07 19:33 | 53.05662 | 17.77142 | 31058 ft | 487 kts | 39° |
| 2026-05-07 19:34 | 53.08408 | 17.80346 | 30823 ft | 476 kts | 39° |
| 2026-05-07 19:34 | 53.11078 | 17.83460 | 30534 ft | 467 kts | 39° |
| 2026-05-07 19:34 | 53.13730 | 17.86557 | 29996 ft | 465 kts | 39° |
| 2026-05-07 19:34 | 53.16397 | 17.89677 | 29348 ft | 464 kts | 39° |
| 2026-05-07 19:35 | 53.19007 | 17.92736 | 28702 ft | 463 kts | 38° |
| 2026-05-07 19:35 | 53.21646 | 17.95829 | 28044 ft | 462 kts | 38° |
| 2026-05-07 19:35 | 53.24248 | 17.98881 | 27398 ft | 461 kts | 37° |
| 2026-05-07 19:35 | 53.26891 | 18.01986 | 26743 ft | 472 kts | 37° |
| 2026-05-07 19:36 | 53.29558 | 18.05127 | 26093 ft | 476 kts | 36° |
| 2026-05-07 19:36 | 53.32241 | 18.08290 | 25432 ft | 473 kts | 36° |
| 2026-05-07 19:36 | 53.34922 | 18.11454 | 24772 ft | 469 kts | 36° |
| 2026-05-07 19:36 | 53.37552 | 18.14561 | 24139 ft | 465 kts | 36° |
| 2026-05-07 19:37 | 53.40139 | 18.17697 | 23492 ft | 461 kts | 37° |
| 2026-05-07 19:37 | 53.42690 | 18.20958 | 22825 ft | 457 kts | 38° |
| 2026-05-07 19:37 | 53.45150 | 18.24204 | 22196 ft | 453 kts | 39° |
| 2026-05-07 19:37 | 53.47595 | 18.27473 | 21544 ft | 449 kts | 39° |
| 2026-05-07 19:38 | 53.50006 | 18.30712 | 20902 ft | 445 kts | 39° |
| 2026-05-07 19:38 | 53.52400 | 18.33930 | 20275 ft | 441 kts | 39° |
| 2026-05-07 19:38 | 53.54764 | 18.37105 | 19642 ft | 436 kts | 38° |
| 2026-05-07 19:38 | 53.57114 | 18.40254 | 19014 ft | 432 kts | 38° |
| 2026-05-07 19:39 | 53.59589 | 18.43110 | 18401 ft | 426 kts | 27° |
| 2026-05-07 19:39 | 53.62236 | 18.45144 | 17688 ft | 425 kts | 20° |
| 2026-05-07 19:39 | 53.65017 | 18.46779 | 17241 ft | 414 kts | 16° |
| 2026-05-07 19:39 | 53.67697 | 18.48169 | 17016 ft | 400 kts | 15° |
| 2026-05-07 19:40 | 53.70327 | 18.49506 | 16628 ft | 391 kts | 15° |
| 2026-05-07 19:40 | 53.72920 | 18.50864 | 16026 ft | 389 kts | 16° |
| 2026-05-07 19:40 | 53.75478 | 18.52272 | 15397 ft | 387 kts | 17° |
| 2026-05-07 19:40 | 53.77995 | 18.53715 | 14777 ft | 385 kts | 18° |
| 2026-05-07 19:41 | 53.80484 | 18.55182 | 14122 ft | 375 kts | 18° |
| 2026-05-07 19:41 | 53.82898 | 18.56629 | 13732 ft | 359 kts | 18° |
| 2026-05-07 19:41 | 53.85195 | 18.58016 | 13388 ft | 351 kts | 19° |
| 2026-05-07 19:41 | 53.87514 | 18.59418 | 12623 ft | 356 kts | 19° |
| 2026-05-07 19:42 | 53.89801 | 18.60800 | 12445 ft | 342 kts | 19° |
| 2026-05-07 19:42 | 53.91964 | 18.62108 | 12167 ft | 333 kts | 19° |
| 2026-05-07 19:42 | 53.94151 | 18.63429 | 11597 ft | 334 kts | 19° |
| 2026-05-07 19:42 | 53.96339 | 18.64750 | 11071 ft | 332 kts | 19° |
| 2026-05-07 19:43 | 53.98510 | 18.66063 | 10545 ft | 331 kts | 20° |
| 2026-05-07 19:43 | 54.00673 | 18.67375 | 10013 ft | 329 kts | 20° |
| 2026-05-07 19:43 | 54.02815 | 18.68676 | 9477 ft | 327 kts | 20° |
| 2026-05-07 19:43 | 54.04941 | 18.69972 | 8948 ft | 325 kts | 20° |
| 2026-05-07 19:44 | 54.07027 | 18.71256 | 8625 ft | 313 kts | 20° |
| 2026-05-07 19:44 | 54.09012 | 18.72481 | 8218 ft | 297 kts | 20° |
| 2026-05-07 19:44 | 54.10909 | 18.73648 | 7707 ft | 287 kts | 20° |
| 2026-05-07 19:44 | 54.12756 | 18.74782 | 7231 ft | 276 kts | 20° |
| 2026-05-07 19:45 | 54.14502 | 18.75851 | 6933 ft | 261 kts | 20° |
| 2026-05-07 19:45 | 54.16160 | 18.76866 | 6529 ft | 253 kts | 20° |
| 2026-05-07 19:45 | 54.17807 | 18.77876 | 6000 ft | 249 kts | 21° |
| 2026-05-07 19:45 | 54.19411 | 18.78859 | 5513 ft | 246 kts | 21° |
| 2026-05-07 19:46 | 54.21002 | 18.79835 | 5271 ft | 240 kts | 21° |
| 2026-05-07 19:46 | 54.22538 | 18.80778 | 5128 ft | 230 kts | 21° |
| 2026-05-07 19:46 | 54.24015 | 18.81685 | 5000 ft | 222 kts | 21° |
| 2026-05-07 19:46 | 54.25435 | 18.82556 | 4855 ft | 215 kts | 21° |
| 2026-05-07 19:47 | 54.26895 | 18.83166 | 4418 ft | 223 kts | 5° |
| 2026-05-07 19:47 | 54.28421 | 18.82532 | 4018 ft | 230 kts | 330° |
| 2026-05-07 19:47 | 54.29449 | 18.80585 | 4002 ft | 222 kts | 300° |
| 2026-05-07 19:47 | 54.29959 | 18.78105 | 4020 ft | 219 kts | 292° |
| 2026-05-07 19:48 | 54.30448 | 18.75736 | 3969 ft | 204 kts | 298° |
| 2026-05-07 19:48 | 54.31016 | 18.73546 | 3691 ft | 203 kts | 301° |
| 2026-05-07 19:48 | 54.31596 | 18.71334 | 3388 ft | 205 kts | 299° |
| 2026-05-07 19:48 | 54.32158 | 18.69083 | 3109 ft | 204 kts | 299° |
| 2026-05-07 19:49 | 54.32708 | 18.66867 | 2809 ft | 200 kts | 299° |
| 2026-05-07 19:49 | 54.33235 | 18.64757 | 2521 ft | 187 kts | 299° |
| 2026-05-07 19:49 | 54.33739 | 18.62751 | 2263 ft | 180 kts | 298° |
| 2026-05-07 19:49 | 54.34231 | 18.60788 | 2041 ft | 173 kts | 299° |
| 2026-05-07 19:50 | 54.34667 | 18.59023 | 1801 ft | 158 kts | 299° |
| 2026-05-07 19:50 | 54.35091 | 18.57315 | 1533 ft | 152 kts | 296° |
| 2026-05-07 19:50 | 54.35496 | 18.55684 | 1412 ft | 141 kts | 300° |
| 2026-05-07 19:50 | 54.35900 | 18.54103 | 1130 ft | 147 kts | 296° |
| 2026-05-07 19:51 | 54.36307 | 18.52435 | 994 ft | 156 kts | 297° |
| 2026-05-07 19:51 | 54.36734 | 18.50731 | 787 ft | 154 kts | 295° |
| 2026-05-07 19:51 | 54.37143 | 18.49085 | 567 ft | 148 kts | 292° |
| 2026-05-07 19:51 | 54.37519 | 18.47556 | 464 ft | 118 kts | 294° |
| 2026-05-07 19:52 | 54.37761 | 18.46610 | 456 ft | 63 kts | 293° |
| 2026-05-07 19:52 | 54.37919 | 18.45997 | 456 ft | 46 kts | 306° |
| 2026-05-07 19:52 | 54.38090 | 18.45716 | 456 ft | 3 kts | 328° |
| 2026-05-07 19:52 | 54.38091 | 18.45715 | 456 ft | 0 kts | 328° |
| 2026-05-07 19:53 | 54.38096 | 18.45711 | 456 ft | 4 kts | 334° |
| 2026-05-07 19:53 | 54.38140 | 18.45779 | 456 ft | 12 kts | 96° |
| 2026-05-07 19:54 | 54.38109 | 18.45919 | 456 ft | 13 kts | 114° |
| 2026-05-07 19:54 | 54.38123 | 18.46064 | 456 ft | 13 kts | 36° |
| 2026-05-07 19:54 | 54.38173 | 18.46176 | 456 ft | 12 kts | 97° |
| 2026-05-07 19:54 | 54.38140 | 18.46317 | 456 ft | 10 kts | 116° |
| 2026-05-07 19:55 | 54.38161 | 18.46367 | 456 ft | 5 kts | 31° |
| 2026-05-07 19:55 | 54.38173 | 18.46379 | 456 ft | 0 kts | 30° |
| 2026-05-07 19:55 | 54.38177 | 18.46382 | 456 ft | 0 kts | 29° |